Autoridad de Aeronautica Civil de Panamá***
**


taf




PERSPECTIVA DE AERODROMOS:

 

AERÓDROMOS

 

PRONOSTICO DE AERÓDROMO
TAF

AEROPUERTO INTL. DE TOCUMEN:


TAF MPTO 181700Z 1818/1924 28008KT 8000 -RA SCT016CB BKN080 PROB40 1818/1822 5000 TSRA SCT015CB BKN080 TEMPO 1902/1906 VRB02KT=
AEROPUERTO MARCOS A. GELABERT:


TAF MPMG 181700Z 1818/1906 33006KT 8000 -RA SCT016CB BKN080 PROB40 1818/1822 6000 TSRA SCT014CB BKN080 TEMPO 1822/1902 8000 RA=
AEROPUERTO ENRIQUE MALEK:


TAF MPDA 181700Z 1818/1906 21006KT 9999 SCT015CB SCT090 PROB40 1820/1824 5000 TSRA SCT014CB BKN080 TEMPO 1822/1902 8000 RA=
AEROPUERTO PANAMA PACIFICO:


TAF MPPA 181700Z 1818/1924 32008KT 8000 -RA SCT016CB SCT090 PROB30 1818/1822 5000 TSRA SCT016CB BKN080 TEMPO 1822/1902 8000 RA=
AEROPUERTO SCARLETT MARTÍNEZ:


TAF MPSM 181700Z 1818/1924 34006KT 9999 SCT016CB SCT090 PROB30 1818/1822 16010KT 6000 TSRA SCT016CB BKN080 TEMPO 1822/1902 8000 RA=


Contador: 15762